Applegate, CA (95703)

5:10 AM PDT on September 02, 2014 (GMT -0700)
A Hill in Applegate | Change Station
CLOSE
Current Station
Personal Weather Station
Location: Applegate, CA
Elevation: 2260 ft
Nearby Weather Stations

Elev 2260 ft 39.01 °N, 120.98 °W | Updated 16 seconds ago

Clear
Clear
69.8 °F
Feels Like 69.8 °F
N
10.1
Wind Variable Wind from East
Gusts 10.1 mph

Today
High -- | Low -- °F
--% Chance of Precip.
Yesterday
High -- | Low -- °F
Precip. -- in
6:33 AM 7:32 PM
Waxing Crescent, 51% visible
Pressure 29.81 in
Visibility 10.0 miles
Clouds Clear
Dew Point 42 °F
Humidity 37%
Rainfall 0.00 in
Snow Depth Not available.
UV 0 out of 12
Pollen 8.60 out of 12
Ozone Good
Flu Activity Not available.
METAR KAUN 021155Z AUTO 09008KT 10SM CLR 23/06 A2981 RMK AO1

More Conditions Fewer Conditions

Pressure 29.81 in
Visibility 10.0 miles
Clouds Clear
Dew Point 42 °F
Humidity 37%
Rainfall 0.00 in
Snow Depth Not available.
UV 0 out of 12
Pollen 8.60 out of 12
Ozone Good
Flu Activity Not available.
METAR KAUN 021155Z AUTO 09008KT 10SM CLR 23/06 A2981 RMK AO1

More Conditions Fewer Conditions

10-Day Weather Forecast

Almanac

Astronomy

Sep. 02, 2014 Rise Set
Actual Time 6:33 AM PDT 7:32 PM PDT
Civil Twilight 6:06 AM PDT 7:59 PM PDT
Nautical Twilight 5:34 AM PDT 8:32 PM PDT
Astronomical Twilight 5:00 AM PDT 9:05 PM PDT
Moon 2:19 PM PDT No Moon Set
Length of Visible Light 13h 53m
Length of Day
12h 58m
Tomorrow will be 2m 27s shorter.
Waxing Crescent, 51% of the Moon is Illuminated
Today
Waxing Crescent
Sep 8
Full
Sep 15
Last Quarter
Sep 24
New
Oct 1
First Quarter

Today's Extremes

State Highs State Lows

Community

WunderPhotos

Upload Photos

1,749,622 photos uploaded!

WunderBlogs® & News

By Dr. Jeff Masters
Director of Meteorology, Weather Underground
By Kari Strenfel
Meteorologist, Weather Underground
By Christopher C. Burt
Weather Historian, Weather Underground
September 2, 2014
September 2, 2014
September 2, 2014

Nearby

Air Quality

  Air Quality AQ Index Pollutant
Yesterday Good
OZONE
Current Good
OZONE
Tuesday Moderate
OZONE
Wednesday Moderate
OZONE

Snow Depth

Station Depth Elevation
CSS Lab 2 in 6900 ft
Rubicon #2 0 in 7500 ft
Tahoe City Cross 0 in 6750 ft
Independence Camp 0 in 7000 ft
Echo Peak 0 in 7800 ft

Earthquake Activity

City Distance Mag. Time & Date
Yountville, California 87 miles 2.6 1:15 PM PDT
2014-09-01
Green Valley, California 81 miles 2.5 6:37 AM PDT
2014-08-31
Napa, California 89 miles 3.2 1:56 AM PDT
2014-08-31
Minimum magnitude displayed is 2.5.

Coastal Water Temperatures

Place Temperature
No Stations Reporting

Nearby Weather Stations